Time;durP1;ratioP1;P1;durP2;ratioP2;P2;SDS_P1;SDS_P2;PMS_P1;PMS_P2;Temp;Humidity;BMP_temperature;BMP_pressure;BME280_temperature;BME280_humidity;BME280_pressure;Samples;Min_cycle;Max_cycle;Signal;HPM_P1;HPM_P2
2022/05/07 00:01:54;;;;;;;5.20;3.93;;;13.80;99.90;;;;;;5052676;28;20258;-75
2022/05/07 00:04:19;;;;;;;6.60;4.00;;;13.80;99.90;;;;;;5053682;28;20199;-74
2022/05/07 00:06:45;;;;;;;5.40;3.70;;;13.80;99.90;;;;;;5053765;28;20596;-74
2022/05/07 00:09:10;;;;;;;4.30;3.90;;;13.80;99.90;;;;;;5053796;28;20171;-74
2022/05/07 00:11:36;;;;;;;4.43;3.53;;;13.80;99.90;;;;;;5053734;28;20186;-74
2022/05/07 00:14:01;;;;;;;6.43;3.40;;;13.80;99.90;;;;;;5053693;28;20245;-74
2022/05/07 00:19:11;;;;;;;3.43;3.13;;;13.70;99.90;;;;;;5053603;28;20175;-74
2022/05/07 00:21:36;;;;;;;7.53;3.60;;;13.70;99.90;;;;;;5053450;28;20406;-74
2022/05/07 00:24:02;;;;;;;3.30;3.00;;;13.70;99.90;;;;;;5053349;28;20223;-73
2022/05/07 00:26:28;;;;;;;4.03;3.67;;;13.70;99.90;;;;;;5053372;28;20171;-73
2022/05/07 00:28:54;;;;;;;4.00;3.30;;;13.70;99.90;;;;;;5053395;28;20775;-73
2022/05/07 00:31:20;;;;;;;3.40;3.07;;;13.70;99.90;;;;;;5053163;28;20409;-73
2022/05/07 00:33:46;;;;;;;3.70;2.80;;;13.70;99.90;;;;;;5053212;28;20191;-74
2022/05/07 00:36:11;;;;;;;5.17;3.20;;;13.70;99.90;;;;;;5053138;28;20216;-74
2022/05/07 00:38:37;;;;;;;7.60;3.37;;;13.70;99.90;;;;;;5053173;28;20217;-73
2022/05/07 00:41:02;;;;;;;3.23;3.00;;;13.70;99.90;;;;;;5053242;28;20167;-74
2022/05/07 00:43:39;;;;;;;3.93;2.77;;;13.70;99.90;;;;;;5053108;28;20191;-74
2022/05/07 00:46:05;;;;;;;3.50;3.00;;;13.70;99.90;;;;;;5053145;28;20177;-74
2022/05/07 00:48:31;;;;;;;3.60;3.30;;;13.80;99.90;;;;;;5053709;28;20405;-74
2022/05/07 00:53:41;;;;;;;4.00;2.93;;;13.80;99.90;;;;;;5053196;28;21067;-74
2022/05/07 00:56:07;;;;;;;7.03;3.33;;;13.80;99.90;;;;;;5052751;28;20409;-74
2022/05/07 00:58:34;;;;;;;3.67;3.37;;;13.90;99.90;;;;;;5052706;28;20947;-74
2022/05/07 01:01:00;;;;;;;3.50;3.20;;;13.90;99.90;;;;;;5052900;28;20895;-74
2022/05/07 01:03:26;;;;;;;3.10;2.60;;;13.90;99.90;;;;;;5052513;28;20475;-74
2022/05/07 01:05:51;;;;;;;3.70;2.90;;;13.90;99.90;;;;;;5052443;28;20190;-74
2022/05/07 01:08:19;;;;;;;3.73;3.17;;;13.90;99.90;;;;;;5052554;28;20177;-74
2022/05/07 01:10:45;;;;;;;6.13;3.47;;;13.90;99.90;;;;;;5052597;28;20178;-74
2022/05/07 01:13:11;;;;;;;5.43;3.30;;;13.90;99.90;;;;;;5051885;28;20495;-74
2022/05/07 01:15:47;;;;;;;4.03;3.10;;;13.90;99.90;;;;;;5052345;28;20163;-74
2022/05/07 01:18:15;;;;;;;3.60;3.30;;;14.00;99.90;;;;;;5052342;28;20202;-74
2022/05/07 01:20:41;;;;;;;3.93;2.83;;;14.00;99.90;;;;;;5052592;28;20405;-74
2022/05/07 01:23:08;;;;;;;3.47;2.53;;;14.00;99.90;;;;;;5032722;28;20992;-74
2022/05/07 01:25:34;;;;;;;5.97;3.40;;;14.00;99.90;;;;;;5037376;28;20425;-74
2022/05/07 01:28:00;;;;;;;4.17;2.93;;;14.00;99.90;;;;;;5017313;28;20427;-74
2022/05/07 01:30:25;;;;;;;2.53;2.33;;;14.00;99.90;;;;;;5014569;28;20223;-73
2022/05/07 01:32:52;;;;;;;3.20;2.93;;;14.10;99.90;;;;;;5032347;28;20266;-73
2022/05/07 01:35:17;;;;;;;5.07;3.57;;;14.00;99.90;;;;;;5032204;28;20202;-73
2022/05/07 01:37:43;;;;;;;3.67;3.27;;;14.20;99.90;;;;;;5032136;28;20454;-73
2022/05/07 01:40:08;;;;;;;5.20;2.90;;;14.20;99.90;;;;;;5028720;28;20858;-73
2022/05/07 01:42:34;;;;;;;2.67;2.47;;;14.10;99.90;;;;;;5032035;28;20190;-73
2022/05/07 01:45:01;;;;;;;3.77;2.60;;;14.10;99.90;;;;;;5032009;28;20175;-74
2022/05/07 01:50:10;;;;;;;3.03;2.40;;;14.20;99.90;;;;;;5032315;28;20409;-73
2022/05/07 01:52:36;;;;;;;5.17;2.43;;;14.10;99.90;;;;;;5031529;28;20422;-73
2022/05/07 01:55:01;;;;;;;6.50;2.60;;;14.10;99.90;;;;;;5031850;28;20194;-74
2022/05/07 01:57:27;;;;;;;2.37;2.17;;;14.10;99.90;;;;;;5018282;28;20685;-72
2022/05/07 01:59:52;;;;;;;2.93;2.53;;;14.10;99.90;;;;;;5012209;28;20167;-74
2022/05/07 02:02:18;;;;;;;2.73;2.20;;;14.10;99.90;;;;;;5012009;28;20198;-73
2022/05/07 02:04:43;;;;;;;3.03;1.97;;;14.10;99.90;;;;;;5011877;28;20188;-73
2022/05/07 02:07:09;;;;;;;1.83;1.70;;;14.10;99.90;;;;;;5012146;28;20223;-73
2022/05/07 02:09:35;;;;;;;2.37;2.17;;;14.10;99.90;;;;;;5012083;28;20168;-73
2022/05/07 02:12:01;;;;;;;2.40;2.20;;;14.10;99.90;;;;;;5012066;28;20195;-73
2022/05/07 02:14:26;;;;;;;2.30;2.13;;;14.10;99.90;;;;;;5011872;28;20435;-73
2022/05/07 02:16:52;;;;;;;2.30;2.07;;;14.10;99.90;;;;;;5012029;28;20457;-74
2022/05/07 02:19:17;;;;;;;3.90;2.20;;;14.10;99.90;;;;;;5011924;28;20340;-73
2022/05/07 02:21:43;;;;;;;4.83;2.20;;;14.10;99.90;;;;;;5022469;28;20205;-73
2022/05/07 02:24:08;;;;;;;3.13;2.83;;;14.10;99.90;;;;;;5031556;28;20665;-73
2022/05/07 02:26:34;;;;;;;2.53;2.33;;;14.10;99.90;;;;;;5034315;28;20611;-73
2022/05/07 02:28:59;;;;;;;3.03;2.70;;;14.10;99.90;;;;;;5035716;28;20167;-73
2022/05/07 02:31:25;;;;;;;2.60;1.87;;;14.10;99.90;;;;;;5035442;28;20163;-73
2022/05/07 02:33:51;;;;;;;2.87;2.67;;;14.10;99.90;;;;;;5035663;28;20191;-73
2022/05/07 02:36:16;;;;;;;3.50;2.07;;;14.10;99.90;;;;;;5035478;28;20160;-73
2022/05/07 02:38:42;;;;;;;2.80;2.50;;;14.10;99.90;;;;;;5035446;28;20450;-73
2022/05/07 02:43:51;;;;;;;3.63;2.90;;;14.20;99.90;;;;;;5035593;28;20607;-73
2022/05/07 02:46:17;;;;;;;5.20;3.33;;;14.20;99.90;;;;;;5035222;28;20489;-73
2022/05/07 02:48:44;;;;;;;2.50;2.27;;;14.20;99.90;;;;;;5035371;28;20180;-73
2022/05/07 02:51:13;;;;;;;3.80;2.57;;;14.20;99.90;;;;;;5035512;28;20176;-73
2022/05/07 02:53:39;;;;;;;2.70;2.50;;;14.20;99.90;;;;;;5034934;28;20445;-73
2022/05/07 02:56:04;;;;;;;2.00;1.70;;;14.20;99.90;;;;;;5035103;28;20429;-73
2022/05/07 02:58:30;;;;;;;2.70;2.50;;;14.10;99.90;;;;;;5035142;28;20199;-73
2022/05/07 03:00:57;;;;;;;2.27;1.83;;;14.10;99.90;;;;;;5035201;28;20163;-73
2022/05/07 03:03:22;;;;;;;4.57;2.40;;;14.10;99.90;;;;;;5035026;28;20430;-73
2022/05/07 03:05:48;;;;;;;2.17;1.93;;;14.10;99.90;;;;;;5035198;28;20406;-73
2022/05/07 03:08:14;;;;;;;2.33;2.10;;;14.10;99.90;;;;;;5035295;28;20171;-73
2022/05/07 03:10:39;;;;;;;13.30;2.80;;;14.10;99.90;;;;;;5035046;28;20190;-73
2022/05/07 03:13:05;;;;;;;2.20;2.00;;;14.10;99.90;;;;;;5034790;28;20465;-73
2022/05/07 03:15:31;;;;;;;2.27;2.07;;;14.10;99.90;;;;;;5034732;28;20199;-73
2022/05/07 03:17:56;;;;;;;2.80;2.23;;;14.10;99.90;;;;;;5034693;28;20449;-73
2022/05/07 03:20:22;;;;;;;2.17;1.97;;;14.10;99.90;;;;;;5034700;28;20218;-73
2022/05/07 03:22:48;;;;;;;2.80;1.93;;;14.00;99.90;;;;;;5034624;28;20717;-73
2022/05/07 03:25:13;;;;;;;3.40;2.33;;;14.00;99.90;;;;;;5034590;28;20410;-73
2022/05/07 03:27:39;;;;;;;4.33;2.93;;;14.00;99.90;;;;;;5034741;28;20174;-73
2022/05/07 03:30:07;;;;;;;1.87;1.77;;;13.90;99.90;;;;;;5034553;28;20634;-73
2022/05/07 03:32:35;;;;;;;3.27;2.77;;;13.90;99.90;;;;;;5034376;28;20167;-73
2022/05/07 03:35:01;;;;;;;4.07;2.70;;;13.90;99.90;;;;;;5034448;28;20981;-73
2022/05/07 03:37:27;;;;;;;7.67;2.20;;;13.80;99.90;;;;;;5034241;28;20480;-73
2022/05/07 03:39:53;;;;;;;4.50;2.80;;;13.80;99.90;;;;;;5034524;28;20891;-73
2022/05/07 03:42:20;;;;;;;2.67;2.47;;;13.80;99.90;;;;;;5034260;28;20241;-73
2022/05/07 03:44:46;;;;;;;2.20;2.00;;;13.70;99.90;;;;;;5034400;28;20282;-73
2022/05/07 03:47:12;;;;;;;2.60;2.37;;;13.70;99.90;;;;;;5034208;28;20417;-73
2022/05/07 03:49:38;;;;;;;3.17;2.87;;;13.70;99.90;;;;;;5034255;28;20418;-73
2022/05/07 03:54:48;;;;;;;2.60;2.40;;;13.70;99.90;;;;;;5033898;28;20690;-73
2022/05/07 03:57:13;;;;;;;3.23;2.17;;;13.60;99.90;;;;;;5034050;28;20474;-73
2022/05/07 03:59:39;;;;;;;2.77;2.50;;;13.70;99.90;;;;;;5034040;28;20163;-73
2022/05/07 04:02:06;;;;;;;3.47;2.60;;;13.70;99.90;;;;;;5033881;28;20218;-73
2022/05/07 04:04:32;;;;;;;3.97;1.90;;;13.70;99.90;;;;;;5033810;28;20437;-73
2022/05/07 04:06:58;;;;;;;2.80;2.50;;;13.70;99.90;;;;;;5034041;28;20407;-73
2022/05/07 04:09:24;;;;;;;2.80;2.10;;;13.70;99.90;;;;;;5033821;28;20904;-73
2022/05/07 04:11:50;;;;;;;3.20;2.90;;;13.80;99.90;;;;;;5033798;28;20414;-73
2022/05/07 04:14:15;;;;;;;3.03;2.40;;;13.80;99.90;;;;;;5033691;28;20222;-73
2022/05/07 04:16:40;;;;;;;2.30;2.10;;;13.80;99.90;;;;;;5033505;28;20528;-73
2022/05/07 04:19:06;;;;;;;2.60;2.40;;;13.80;99.90;;;;;;5033686;28;20171;-73
2022/05/07 04:21:34;;;;;;;3.33;2.70;;;13.90;99.90;;;;;;5033535;28;20253;-73
2022/05/07 04:23:59;;;;;;;2.40;2.20;;;13.90;99.90;;;;;;5033465;28;20199;-73
2022/05/07 04:26:25;;;;;;;5.23;2.20;;;14.00;99.90;;;;;;5033438;28;20776;-73
2022/05/07 04:28:50;;;;;;;3.00;2.67;;;14.00;99.90;;;;;;5033514;28;20164;-73
2022/05/07 04:31:18;;;;;;;2.77;2.57;;;14.10;99.90;;;;;;5033403;28;20254;-73
2022/05/07 04:33:44;;;;;;;3.57;2.53;;;14.10;99.90;;;;;;5033321;28;20242;-73
2022/05/07 04:36:10;;;;;;;3.37;2.70;;;14.10;99.90;;;;;;5033350;28;20422;-73
2022/05/07 04:38:35;;;;;;;4.37;3.07;;;14.20;99.90;;;;;;5033294;28;20450;-73
2022/05/07 04:41:01;;;;;;;3.10;2.80;;;14.20;99.90;;;;;;5033413;28;20168;-73
2022/05/07 04:43:26;;;;;;;4.63;3.03;;;14.20;99.90;;;;;;5033244;28;20192;-73
2022/05/07 04:45:52;;;;;;;3.90;3.07;;;14.30;99.90;;;;;;5033140;28;20192;-73
2022/05/07 04:48:17;;;;;;;5.13;2.70;;;14.30;99.90;;;;;;5032902;28;20203;-73
2022/05/07 04:50:43;;;;;;;3.43;2.80;;;14.40;99.90;;;;;;5033313;28;20564;-73
2022/05/07 04:53:08;;;;;;;3.13;2.93;;;14.50;99.90;;;;;;5032934;28;20218;-73
2022/05/07 04:55:33;;;;;;;3.27;2.97;;;14.50;99.90;;;;;;5033012;28;20176;-73
2022/05/07 04:57:59;;;;;;;4.03;2.50;;;14.50;99.90;;;;;;5033040;28;20196;-73
2022/05/07 05:00:24;;;;;;;3.20;2.90;;;14.50;99.90;;;;;;5032926;28;20249;-74
2022/05/07 05:02:50;;;;;;;2.70;2.50;;;14.60;99.90;;;;;;5032980;28;20192;-73
2022/05/07 05:05:15;;;;;;;2.80;2.60;;;14.60;99.90;;;;;;5032772;28;20164;-73
2022/05/07 05:07:41;;;;;;;3.30;2.80;;;14.70;99.90;;;;;;5032695;28;20564;-74
2022/05/07 05:10:07;;;;;;;4.47;2.97;;;14.80;99.90;;;;;;5032816;28;20173;-73
2022/05/07 05:12:33;;;;;;;3.30;3.00;;;15.00;99.90;;;;;;5032544;28;20199;-72
2022/05/07 05:15:01;;;;;;;3.33;3.03;;;15.20;99.90;;;;;;5032396;28;20492;-72
2022/05/07 05:17:27;;;;;;;3.20;2.90;;;15.40;99.90;;;;;;5032725;28;20949;-72
2022/05/07 05:19:52;;;;;;;3.03;2.80;;;15.50;99.90;;;;;;5032436;28;20418;-72
2022/05/07 05:22:18;;;;;;;2.60;2.23;;;16.10;99.90;;;;;;5032554;28;20576;-71
2022/05/07 05:24:43;;;;;;;4.70;2.80;;;17.00;99.90;;;;;;5032601;28;20206;-72
2022/05/07 05:27:09;;;;;;;4.03;3.50;;;16.70;99.90;;;;;;5032871;28;20251;-73
2022/05/07 05:29:34;;;;;;;2.90;2.70;;;16.90;99.90;;;;;;5032398;28;20550;-73
2022/05/07 05:32:00;;;;;;;2.63;2.43;;;17.30;99.90;;;;;;5032250;28;20164;-73
2022/05/07 05:34:26;;;;;;;2.77;2.30;;;17.40;99.90;;;;;;5032216;28;20194;-73
2022/05/07 05:36:52;;;;;;;2.30;2.10;;;18.10;99.90;;;;;;5032404;28;20174;-73
2022/05/07 05:39:17;;;;;;;2.80;2.30;;;17.90;99.90;;;;;;5032235;28;20478;-73
2022/05/07 05:41:44;;;;;;;2.57;2.37;;;18.00;99.90;;;;;;5032204;28;20917;-74
2022/05/07 05:44:10;;;;;;;2.80;2.20;;;18.80;99.90;;;;;;5032081;28;20184;-74
2022/05/07 05:46:35;;;;;;;2.93;2.50;;;19.70;99.30;;;;;;5032368;28;20518;-72
2022/05/07 05:49:01;;;;;;;3.60;2.47;;;19.90;97.60;;;;;;5032027;28;20451;-72
2022/05/07 05:51:26;;;;;;;2.20;2.00;;;19.50;97.90;;;;;;5031888;28;20172;-72
2022/05/07 05:53:52;;;;;;;2.53;2.00;;;19.90;98.30;;;;;;5032046;28;20203;-72
2022/05/07 05:56:17;;;;;;;2.60;2.40;;;19.50;97.10;;;;;;5032102;28;20173;-71
2022/05/07 05:58:43;;;;;;;3.07;2.00;;;19.30;98.00;;;;;;5031793;28;20202;-71
2022/05/07 06:01:08;;;;;;;2.40;2.20;;;19.80;97.50;;;;;;5031921;28;20257;-71
2022/05/07 06:03:34;;;;;;;5.10;2.40;;;19.20;97.10;;;;;;5031769;28;20187;-71
2022/05/07 06:05:59;;;;;;;2.30;2.10;;;19.50;97.70;;;;;;5031700;28;20646;-71
2022/05/07 06:08:25;;;;;;;1.93;1.80;;;20.20;96.80;;;;;;5032010;28;20186;-71
2022/05/07 06:10:52;;;;;;;2.20;1.90;;;20.30;96.10;;;;;;5031572;28;20183;-71
2022/05/07 06:13:18;;;;;;;2.77;1.97;;;21.20;95.40;;;;;;5031474;28;20186;-72
2022/05/07 06:15:45;;;;;;;2.63;2.40;;;21.30;94.20;;;;;;5031570;28;20907;-72
2022/05/07 06:18:11;;;;;;;2.60;2.00;;;21.40;94.00;;;;;;5031434;28;20457;-71
2022/05/07 06:20:36;;;;;;;1.83;1.73;;;21.00;94.20;;;;;;5031606;28;20833;-71
2022/05/07 06:23:02;;;;;;;2.43;2.00;;;21.40;93.40;;;;;;5031898;28;20277;-72
2022/05/07 06:28:13;;;;;;;2.27;1.83;;;21.40;93.10;;;;;;5031640;28;20179;-71
2022/05/07 06:30:38;;;;;;;2.47;1.87;;;23.10;91.80;;;;;;5031609;28;20402;-71
2022/05/07 06:33:04;;;;;;;3.17;2.13;;;23.00;91.20;;;;;;5031464;28;20421;-72
2022/05/07 06:35:32;;;;;;;1.60;1.50;;;22.30;90.60;;;;;;5031446;28;20538;-72
2022/05/07 06:37:57;;;;;;;2.57;1.93;;;23.00;91.40;;;;;;5031326;28;20195;-72
2022/05/07 06:40:23;;;;;;;1.83;1.70;;;22.90;90.10;;;;;;5031284;28;20548;-71
2022/05/07 06:42:49;;;;;;;1.93;1.83;;;22.80;91.50;;;;;;5031172;28;20203;-71
2022/05/07 06:45:15;;;;;;;2.30;1.67;;;24.30;89.80;;;;;;5031240;28;20171;-70
2022/05/07 06:47:41;;;;;;;1.73;1.60;;;24.20;89.20;;;;;;5031268;28;20440;-72
2022/05/07 06:50:07;;;;;;;2.30;1.73;;;23.80;87.00;;;;;;5031298;28;20266;-72
2022/05/07 06:52:41;;;;;;;1.73;1.47;;;22.60;87.90;;;;;;5031358;28;20651;-72
2022/05/07 06:55:07;;;;;;;2.20;1.93;;;23.00;90.10;;;;;;5017474;28;20419;-71
2022/05/07 06:57:32;;;;;;;2.20;2.00;;;22.90;87.20;;;;;;5011590;28;20549;-72
2022/05/07 06:59:58;;;;;;;1.60;1.50;;;24.80;85.70;;;;;;5011414;28;20502;-71
2022/05/07 07:02:23;;;;;;;2.30;1.80;;;23.80;86.90;;;;;;5011285;28;20172;-72
2022/05/07 07:04:49;;;;;;;2.20;1.73;;;23.80;87.00;;;;;;5010913;28;20180;-71
2022/05/07 07:07:14;;;;;;;4.10;3.70;;;23.50;82.60;;;;;;5011393;28;20223;-71
2022/05/07 07:09:39;;;;;;;4.70;3.73;;;24.60;83.50;;;;;;5011537;28;20263;-71
2022/05/07 07:12:06;;;;;;;3.73;2.13;;;24.40;82.10;;;;;;5013006;28;20172;-70
2022/05/07 07:14:32;;;;;;;3.27;2.00;;;23.30;81.00;;;;;;5014868;28;20633;-71
2022/05/07 07:16:58;;;;;;;1.83;1.73;;;23.00;87.00;;;;;;5014858;28;20832;-70
2022/05/07 07:19:23;;;;;;;1.87;1.77;;;24.00;85.00;;;;;;5014876;28;20417;-72
2022/05/07 07:21:50;;;;;;;3.17;1.87;;;24.90;81.80;;;;;;5014836;28;20163;-72
2022/05/07 07:24:15;;;;;;;2.17;1.80;;;25.00;82.00;;;;;;5026156;28;20192;-71
2022/05/07 07:26:41;;;;;;;2.80;1.80;;;24.70;77.80;;;;;;5042838;28;20961;-71
2022/05/07 07:29:06;;;;;;;4.77;2.17;;;24.50;80.50;;;;;;5014920;28;20184;-70
2022/05/07 07:31:31;;;;;;;14.13;10.50;;;24.90;79.50;;;;;;5031073;28;20187;-71
2022/05/07 07:33:57;;;;;;;1.73;1.33;;;24.80;80.70;;;;;;5033741;28;20727;-71
2022/05/07 07:36:23;;;;;;;2.60;2.10;;;24.60;82.00;;;;;;5033831;28;20181;-71
2022/05/07 07:38:48;;;;;;;1.70;1.43;;;23.80;81.10;;;;;;5033894;28;20660;-71
2022/05/07 07:41:13;;;;;;;7.17;5.33;;;23.60;82.00;;;;;;5028056;28;20175;-72
2022/05/07 07:43:40;;;;;;;3.80;3.20;;;24.10;80.10;;;;;;5013961;28;20218;-71
2022/05/07 07:48:49;;;;;;;3.67;2.03;;;24.50;80.10;;;;;;5030660;28;20521;-72
2022/05/07 07:51:15;;;;;;;5.07;3.80;;;23.90;77.00;;;;;;5033838;28;20844;-70
2022/05/07 07:53:42;;;;;;;2.53;2.20;;;23.60;80.00;;;;;;5034164;28;20214;-71
2022/05/07 07:56:07;;;;;;;4.63;3.20;;;22.70;79.10;;;;;;5015846;28;20178;-70
2022/05/07 07:58:34;;;;;;;2.73;2.13;;;23.70;81.40;;;;;;5032014;28;20476;-70
2022/05/07 08:00:59;;;;;;;4.87;3.33;;;24.60;77.90;;;;;;5033849;28;20189;-71
2022/05/07 08:03:25;;;;;;;2.40;1.80;;;25.40;76.30;;;;;;5033944;28;20425;-71
2022/05/07 08:05:52;;;;;;;2.30;2.10;;;26.30;74.00;;;;;;5033756;28;20171;-71
2022/05/07 08:13:53;;;;;;;2.60;2.40;;;26.60;71.00;;;;;;5033630;28;20513;-72
2022/05/07 08:16:19;;;;;;;5.03;2.80;;;26.00;73.00;;;;;;5033388;28;20794;-72
2022/05/07 08:18:45;;;;;;;4.90;2.90;;;25.10;70.90;;;;;;5033446;28;20970;-73
2022/05/07 08:21:11;;;;;;;5.50;4.00;;;26.60;68.30;;;;;;5033532;28;20421;-73
2022/05/07 08:23:38;;;;;;;21.40;12.97;;;27.20;67.20;;;;;;5032581;28;20208;-73
2022/05/07 08:26:05;;;;;;;3.77;3.10;;;26.70;67.90;;;;;;5033447;28;20756;-72
2022/05/07 08:28:31;;;;;;;4.77;3.17;;;26.00;69.00;;;;;;5033252;28;20438;-73
2022/05/07 08:30:57;;;;;;;3.67;3.10;;;27.50;64.60;;;;;;5032929;28;20414;-73
2022/05/07 08:33:23;;;;;;;4.07;3.43;;;27.60;64.70;;;;;;5043456;28;20461;-73
2022/05/07 08:35:49;;;;;;;4.00;3.60;;;25.80;66.80;;;;;;5053382;28;20427;-73
2022/05/07 08:38:14;;;;;;;5.03;3.63;;;27.60;64.40;;;;;;5047603;28;20735;-72
2022/05/07 08:40:40;;;;;;;3.90;2.57;;;27.10;65.40;;;;;;5032722;28;20186;-74
2022/05/07 08:43:06;;;;;;;5.17;4.50;;;26.00;66.00;;;;;;5033620;28;20197;-75
2022/05/07 08:45:33;;;;;;;3.30;2.50;;;25.70;68.60;;;;;;5033541;28;20189;-73
2022/05/07 08:47:59;;;;;;;3.90;2.87;;;25.60;65.60;;;;;;5033002;28;20457;-73
2022/05/07 08:50:26;;;;;;;3.90;3.10;;;25.10;67.50;;;;;;5014818;28;20449;-72
2022/05/07 08:52:52;;;;;;;5.43;2.80;;;25.20;64.90;;;;;;5032684;28;20454;-72
2022/05/07 08:55:20;;;;;;;4.60;3.10;;;23.70;67.70;;;;;;5032730;28;20452;-71
2022/05/07 08:57:50;;;;;;;7.40;2.93;;;23.70;71.10;;;;;;5033238;28;20477;-74
2022/05/07 09:00:18;;;;;;;5.00;3.23;;;24.60;68.80;;;;;;5033337;28;20473;-73
2022/05/07 09:02:49;;;;;;;3.70;3.03;;;24.80;67.90;;;;;;5032699;28;20402;-72
2022/05/07 09:05:20;;;;;;;17.80;12.80;;;24.20;67.40;;;;;;5032922;28;20517;-73
2022/05/07 09:07:59;;;;;;;18.13;11.80;;;25.30;70.00;;;;;;5033090;28;20406;-73
2022/05/07 09:10:26;;;;;;;6.70;4.97;;;27.40;62.70;;;;;;5032824;28;20405;-72
2022/05/07 09:12:52;;;;;;;8.37;4.33;;;26.50;63.60;;;;;;5032924;28;20426;-72
2022/05/07 09:15:18;;;;;;;4.93;3.77;;;26.70;63.60;;;;;;5032407;28;20418;-73
2022/05/07 09:17:47;;;;;;;4.97;4.00;;;26.20;65.30;;;;;;5032160;28;20456;-71
2022/05/07 09:20:18;;;;;;;2.50;2.30;;;27.50;62.60;;;;;;5032582;28;20171;-73
2022/05/07 09:22:54;;;;;;;3.50;2.90;;;28.30;58.90;;;;;;5032724;28;20444;-72
2022/05/07 09:25:21;;;;;;;4.00;2.63;;;28.10;60.80;;;;;;5023473;28;20559;-70
2022/05/07 09:27:47;;;;;;;6.27;2.90;;;27.30;61.30;;;;;;5012584;28;20418;-73
2022/05/07 09:30:20;;;;;;;3.13;2.83;;;27.10;64.70;;;;;;5012343;28;20894;-72
2022/05/07 09:32:49;;;;;;;3.43;2.37;;;27.40;60.30;;;;;;5014209;28;20412;-72
2022/05/07 09:38:01;;;;;;;5.30;3.67;;;26.90;62.20;;;;;;5032358;28;20488;-72
2022/05/07 09:40:27;;;;;;;2.97;2.57;;;27.20;60.90;;;;;;5032074;28;20407;-74
2022/05/07 09:42:59;;;;;;;4.63;3.60;;;26.30;61.60;;;;;;5031857;28;20603;-73
2022/05/07 09:45:30;;;;;;;3.30;3.00;;;26.30;63.50;;;;;;5031907;28;20430;-72
2022/05/07 09:47:55;;;;;;;5.00;3.60;;;26.10;63.90;;;;;;5031926;28;20475;-72
2022/05/07 09:50:43;;;;;;;2.90;1.93;;;26.70;63.20;;;;;;5032194;28;20393;-73
2022/05/07 09:58:45;;;;;;;2.50;2.10;;;26.10;64.00;;;;;;5012181;28;20508;-72
2022/05/07 10:01:29;;;;;;;3.13;2.13;;;25.10;66.80;;;;;;5012083;28;20403;-71
2022/05/07 10:04:32;;;;;;;2.43;2.20;;;25.60;65.90;;;;;;5012257;28;20537;-71
2022/05/07 10:07:22;;;;;;;2.13;1.90;;;25.50;65.80;;;;;;5021457;28;20406;-73
2022/05/07 10:10:17;;;;;;;3.10;2.13;;;25.30;67.10;;;;;;5033914;28;20492;-70
2022/05/07 10:12:45;;;;;;;2.20;2.00;;;25.40;65.90;;;;;;5011946;28;20413;-71
2022/05/07 10:15:15;;;;;;;3.70;2.53;;;25.20;66.30;;;;;;5010606;28;20883;-71
2022/05/07 10:17:43;;;;;;;2.70;2.23;;;24.30;67.90;;;;;;5011769;28;20458;-71
2022/05/07 10:20:12;;;;;;;3.07;2.87;;;24.60;68.40;;;;;;5011686;28;20544;-70
2022/05/07 10:22:37;;;;;;;2.60;2.40;;;23.90;70.00;;;;;;5011541;28;20441;-70
2022/05/07 10:25:09;;;;;;;4.20;2.63;;;23.80;71.80;;;;;;5020915;28;20460;-71
2022/05/07 10:27:36;;;;;;;4.20;2.20;;;24.40;69.10;;;;;;5031356;28;20551;-72
2022/05/07 10:30:09;;;;;;;2.37;1.93;;;24.60;68.50;;;;;;5031607;28;20417;-73
2022/05/07 10:32:54;;;;;;;2.27;1.90;;;24.30;68.90;;;;;;5033602;28;20418;-72
2022/05/07 10:35:53;;;;;;;2.53;2.03;;;24.10;69.20;;;;;;5032103;28;20912;-74
2022/05/07 10:38:35;;;;;;;2.43;2.00;;;24.70;68.00;;;;;;5012425;28;20500;-71
2022/05/07 10:41:04;;;;;;;4.53;2.47;;;24.80;69.00;;;;;;5012499;28;20925;-73
2022/05/07 10:43:42;;;;;;;4.93;2.53;;;25.00;67.60;;;;;;5024685;28;20487;-71
2022/05/07 10:46:12;;;;;;;2.40;2.20;;;24.70;68.00;;;;;;5032413;28;20771;-72
2022/05/07 10:48:53;;;;;;;1.97;1.87;;;24.30;69.10;;;;;;5035513;28;20409;-72
2022/05/07 10:51:27;;;;;;;3.83;3.07;;;23.90;69.10;;;;;;5035454;28;20441;-72
2022/05/07 10:53:56;;;;;;;2.67;2.30;;;23.30;70.90;;;;;;5034920;28;20439;-72
2022/05/07 10:56:23;;;;;;;4.87;3.00;;;23.50;71.80;;;;;;5034924;28;20404;-72
2022/05/07 10:58:51;;;;;;;2.87;2.30;;;24.40;70.60;;;;;;5034893;28;20814;-72
2022/05/07 11:01:17;;;;;;;4.03;2.40;;;24.70;69.80;;;;;;5035343;28;20411;-72
2022/05/07 11:03:44;;;;;;;2.50;2.30;;;24.50;69.40;;;;;;5035041;28;20788;-73
2022/05/07 11:06:09;;;;;;;3.30;2.33;;;24.40;70.70;;;;;;5035020;28;20394;-73
2022/05/07 11:08:46;;;;;;;3.70;3.13;;;23.80;71.30;;;;;;5023516;28;20943;-72
2022/05/07 11:11:11;;;;;;;3.00;2.70;;;24.20;71.80;;;;;;5015140;28;20650;-72
2022/05/07 11:13:56;;;;;;;5.30;3.90;;;23.60;72.70;;;;;;5014680;28;20563;-71
2022/05/07 11:16:23;;;;;;;2.67;2.40;;;23.90;71.80;;;;;;5014536;28;20179;-71
2022/05/07 11:18:55;;;;;;;3.10;2.27;;;24.50;69.80;;;;;;5014643;28;20511;-71
2022/05/07 11:21:25;;;;;;;2.53;2.30;;;23.60;71.30;;;;;;5014774;28;20404;-71
2022/05/07 11:24:01;;;;;;;2.40;2.20;;;23.50;72.60;;;;;;5014575;28;20421;-71
2022/05/07 11:26:27;;;;;;;2.53;2.33;;;24.10;72.10;;;;;;5014534;28;20399;-72
2022/05/07 11:28:54;;;;;;;4.83;2.97;;;24.30;71.60;;;;;;5014426;28;20402;-72
2022/05/07 11:31:32;;;;;;;3.37;3.07;;;24.30;71.70;;;;;;5022712;28;20440;-71
2022/05/07 11:34:08;;;;;;;2.87;2.63;;;22.80;74.20;;;;;;5034187;28;20433;-72
2022/05/07 11:36:35;;;;;;;2.47;2.27;;;23.40;74.20;;;;;;5034016;28;20418;-73
2022/05/07 11:39:06;;;;;;;2.90;2.47;;;23.00;74.70;;;;;;5034532;28;20456;-73
2022/05/07 11:41:32;;;;;;;3.27;2.07;;;22.50;76.20;;;;;;5033846;28;20790;-70
2022/05/07 11:46:54;;;;;;;4.07;2.90;;;22.80;76.00;;;;;;5035536;28;20447;-72
2022/05/07 11:49:28;;;;;;;3.70;3.00;;;22.60;77.00;;;;;;5033885;28;20742;-71
2022/05/07 11:52:10;;;;;;;2.13;1.90;;;22.60;76.60;;;;;;5033474;28;20493;-71
2022/05/07 11:54:36;;;;;;;4.27;3.87;;;23.50;75.70;;;;;;5034100;28;20475;-72
2022/05/07 11:57:02;;;;;;;3.40;3.10;;;24.10;73.50;;;;;;5033584;28;20440;-71
2022/05/07 11:59:28;;;;;;;3.00;2.70;;;23.90;74.40;;;;;;5033675;28;20409;-71
2022/05/07 12:01:54;;;;;;;2.70;2.43;;;23.80;74.80;;;;;;5033623;28;20405;-72
2022/05/07 12:04:19;;;;;;;2.10;1.90;;;23.70;73.50;;;;;;5033537;28;20776;-72
2022/05/07 12:06:55;;;;;;;2.50;2.30;;;23.60;74.50;;;;;;5033426;28;20244;-72
2022/05/07 12:09:21;;;;;;;3.33;2.00;;;23.70;73.60;;;;;;5033773;28;20223;-71
2022/05/07 12:11:48;;;;;;;1.73;1.63;;;23.80;73.50;;;;;;5033274;28;20777;-72
2022/05/07 12:14:14;;;;;;;2.87;2.20;;;23.20;74.30;;;;;;5033422;28;20182;-72
2022/05/07 12:19:32;;;;;;;2.30;2.10;;;23.00;75.20;;;;;;5034171;28;20191;-72
2022/05/07 12:30:23;;;;;;;5.93;3.30;;;23.30;75.40;;;;;;4978487;28;20497;-73
2022/05/07 12:32:50;;;;;;;3.43;2.27;;;23.70;73.90;;;;;;5034766;28;20481;-71
2022/05/07 12:35:15;;;;;;;2.53;2.33;;;23.70;73.20;;;;;;5032975;28;20253;-72
2022/05/07 12:37:41;;;;;;;5.10;2.80;;;23.60;74.70;;;;;;5032966;28;20548;-72
2022/05/07 12:40:07;;;;;;;2.60;2.40;;;23.70;75.40;;;;;;5032853;28;20173;-72
2022/05/07 12:42:34;;;;;;;2.47;2.27;;;23.70;76.00;;;;;;5032857;28;20167;-72
2022/05/07 12:45:00;;;;;;;2.83;2.63;;;23.20;77.90;;;;;;5039975;28;20805;-71
2022/05/07 12:47:26;;;;;;;2.97;2.63;;;23.30;76.80;;;;;;5044371;28;20412;-73
2022/05/07 12:49:51;;;;;;;2.93;2.70;;;23.00;75.50;;;;;;5052636;28;20661;-72
2022/05/07 12:52:17;;;;;;;4.40;2.47;;;23.90;76.10;;;;;;5052467;28;20180;-71
2022/05/07 12:54:42;;;;;;;2.97;2.70;;;23.60;75.50;;;;;;5052438;28;20205;-72
2022/05/07 12:57:09;;;;;;;2.63;2.43;;;24.30;75.00;;;;;;5052411;28;20518;-72
2022/05/07 12:59:36;;;;;;;2.60;2.40;;;24.30;75.10;;;;;;5052319;28;20605;-71
2022/05/07 13:02:08;;;;;;;2.63;2.40;;;24.30;75.40;;;;;;5052337;28;20400;-72
2022/05/07 13:04:34;;;;;;;2.40;2.07;;;23.70;75.80;;;;;;5032702;28;20956;-71
2022/05/07 13:07:00;;;;;;;2.30;2.10;;;24.10;76.30;;;;;;5031900;28;20492;-71
2022/05/07 13:09:26;;;;;;;2.43;2.23;;;24.30;75.70;;;;;;5031586;28;20500;-72
2022/05/07 13:11:52;;;;;;;3.90;3.50;;;24.40;76.30;;;;;;5031936;28;20451;-72
2022/05/07 13:14:18;;;;;;;3.77;3.27;;;24.60;76.30;;;;;;5032137;28;20195;-71
2022/05/07 13:16:44;;;;;;;2.90;2.60;;;24.70;74.90;;;;;;5032275;28;20249;-72
2022/05/07 13:19:09;;;;;;;3.03;2.73;;;24.80;76.10;;;;;;5031851;28;20463;-72
2022/05/07 13:21:35;;;;;;;4.70;2.67;;;24.00;74.30;;;;;;5031782;28;20410;-72
2022/05/07 13:24:01;;;;;;;2.00;1.90;;;23.70;75.00;;;;;;5031728;28;20550;-72
2022/05/07 13:26:26;;;;;;;2.80;2.60;;;23.40;76.20;;;;;;5031775;28;20176;-72
2022/05/07 13:28:52;;;;;;;4.33;3.90;;;23.60;76.90;;;;;;5031851;28;20179;-71
2022/05/07 13:31:17;;;;;;;4.03;2.60;;;23.90;78.10;;;;;;5033831;28;20175;-72
2022/05/07 13:33:43;;;;;;;1.90;1.80;;;24.20;77.80;;;;;;5031658;28;20242;-72